createdAt,value
2018-12-14T00:01:06.235Z,91.70
2018-12-14T00:03:33.718Z,91.80
2018-12-14T00:06:01.431Z,91.90
2018-12-14T00:08:28.882Z,91.80
2018-12-14T00:10:56.337Z,91.90
2018-12-14T00:13:23.802Z,91.80
2018-12-14T00:15:51.234Z,91.90
2018-12-14T00:18:18.692Z,91.90
2018-12-14T00:20:46.146Z,91.90
2018-12-14T00:23:13.608Z,92.00
2018-12-14T00:25:41.049Z,92.00
2018-12-14T00:28:09.070Z,92.00
2018-12-14T00:30:36.502Z,92.10
2018-12-14T00:33:03.965Z,92.10
2018-12-14T00:35:31.569Z,92.20
2018-12-14T00:37:59.038Z,92.10
2018-12-14T00:40:26.480Z,92.20
2018-12-14T00:42:53.941Z,92.20
2018-12-14T00:45:21.422Z,92.20
2018-12-14T00:47:48.880Z,92.20
2018-12-14T00:50:16.317Z,92.20
2018-12-14T00:52:43.881Z,92.20
2018-12-14T00:55:11.322Z,92.10
2018-12-14T00:57:38.797Z,92.20
2018-12-14T01:00:08.641Z,92.10
2018-12-14T01:02:36.092Z,92.10
2018-12-14T01:05:04.881Z,92.10
2018-12-14T01:07:32.369Z,92.00
2018-12-14T01:09:59.805Z,92.10
2018-12-14T01:12:27.277Z,92.10
2018-12-14T01:14:54.701Z,92.00
2018-12-14T01:17:22.184Z,92.00
2018-12-14T01:19:49.694Z,92.10
2018-12-14T01:22:17.157Z,92.10
2018-12-14T01:24:44.592Z,92.10
2018-12-14T01:27:12.066Z,92.10
2018-12-14T01:29:39.497Z,92.10
2018-12-14T01:32:07.026Z,92.10
2018-12-14T01:34:34.461Z,92.10
2018-12-14T01:37:01.922Z,91.90
2018-12-14T01:39:29.439Z,92.00
2018-12-14T01:41:56.926Z,92.00
2018-12-14T01:44:24.429Z,92.10
2018-12-14T01:46:51.941Z,92.00
2018-12-14T01:49:19.434Z,91.90
2018-12-14T01:51:46.871Z,92.00
2018-12-14T01:54:14.360Z,92.00
2018-12-14T01:56:41.799Z,92.00
2018-12-14T01:59:09.270Z,92.00
2018-12-14T02:01:36.706Z,92.10
2018-12-14T02:04:04.268Z,92.20
2018-12-14T02:06:31.702Z,92.20
2018-12-14T02:08:59.161Z,92.30
2018-12-14T02:11:26.598Z,92.30
2018-12-14T02:13:54.069Z,92.30
2018-12-14T02:16:21.541Z,92.30
2018-12-14T02:18:48.978Z,92.20
2018-12-14T02:21:16.438Z,92.10
2018-12-14T02:23:43.905Z,92.20
2018-12-14T02:26:11.402Z,92.20
2018-12-14T02:28:38.858Z,92.30
2018-12-14T02:31:06.365Z,92.30
2018-12-14T02:33:33.827Z,92.30
2018-12-14T02:36:01.281Z,92.30
2018-12-14T02:38:28.754Z,92.30
2018-12-14T02:40:56.195Z,92.30
2018-12-14T02:43:23.815Z,92.40
2018-12-14T02:45:51.245Z,92.50
2018-12-14T02:48:18.718Z,92.60
2018-12-14T02:50:46.204Z,92.80
2018-12-14T02:53:13.675Z,92.90
2018-12-14T02:55:41.261Z,93.00
2018-12-14T02:58:09.254Z,93.00
2018-12-14T03:00:36.718Z,93.10
2018-12-14T03:03:04.277Z,93.10
2018-12-14T03:05:31.958Z,93.00
2018-12-14T03:07:59.642Z,93.00
2018-12-14T03:10:27.078Z,93.20
2018-12-14T03:12:55.057Z,93.10
2018-12-14T03:15:22.500Z,93.10
2018-12-14T03:17:50.132Z,93.20
2018-12-14T03:20:17.561Z,93.20
2018-12-14T03:22:45.038Z,93.30
2018-12-14T03:25:12.545Z,93.30
2018-12-14T03:27:40.121Z,93.30
2018-12-14T03:30:08.386Z,93.30
2018-12-14T03:32:35.966Z,93.30
2018-12-14T03:35:04.648Z,93.30
2018-12-14T03:37:32.174Z,93.30
2018-12-14T03:39:59.634Z,93.20
2018-12-14T03:42:33.915Z,93.10
2018-12-14T03:44:56.975Z,93.20
2018-12-14T03:47:24.450Z,93.30
2018-12-14T03:49:51.965Z,93.40
2018-12-14T03:52:19.428Z,93.40
2018-12-14T03:54:46.868Z,93.50
2018-12-14T03:57:14.368Z,93.40
2018-12-14T03:59:41.821Z,93.40
2018-12-14T04:02:09.281Z,93.40
2018-12-14T04:04:36.815Z,93.30
2018-12-14T04:07:04.285Z,93.30
2018-12-14T04:09:31.718Z,93.60
2018-12-14T04:11:59.249Z,93.20
2018-12-14T04:14:26.692Z,93.20
2018-12-14T04:16:54.149Z,93.20
2018-12-14T04:19:21.612Z,93.20
2018-12-14T04:21:49.077Z,93.10
2018-12-14T04:24:16.528Z,93.00
2018-12-14T04:26:43.990Z,92.90
2018-12-14T04:29:11.439Z,92.80
2018-12-14T04:31:38.905Z,92.90
2018-12-14T04:34:06.341Z,92.70
2018-12-14T04:36:33.807Z,92.70
2018-12-14T04:39:01.315Z,92.70
2018-12-14T04:41:28.846Z,92.70
2018-12-14T04:43:56.286Z,92.70
2018-12-14T04:46:23.814Z,92.70
2018-12-14T04:48:51.239Z,92.70
2018-12-14T04:51:18.696Z,92.60
2018-12-14T04:53:46.258Z,92.90
2018-12-14T04:56:13.725Z,92.60
2018-12-14T04:58:41.164Z,92.60
2018-12-14T05:01:08.906Z,92.50
2018-12-14T05:03:36.328Z,92.40
2018-12-14T05:06:04.126Z,92.40
2018-12-14T05:08:31.563Z,92.40
2018-12-14T05:10:59.021Z,92.50
2018-12-14T05:13:26.475Z,92.50
2018-12-14T05:15:53.938Z,92.50
2018-12-14T05:18:21.388Z,92.60
2018-12-14T05:20:48.925Z,92.60
2018-12-14T05:23:16.357Z,92.70
2018-12-14T05:25:43.821Z,92.70
2018-12-14T05:28:11.261Z,92.80
2018-12-14T05:30:38.725Z,92.70
2018-12-14T05:33:06.192Z,92.60
2018-12-14T05:35:33.645Z,92.40
2018-12-14T05:38:01.179Z,92.50
2018-12-14T05:40:28.638Z,92.50
2018-12-14T05:43:02.723Z,92.50
2018-12-14T05:45:29.761Z,92.50
2018-12-14T05:47:57.290Z,92.50
2018-12-14T05:50:24.761Z,92.60
2018-12-14T05:52:52.294Z,92.60
2018-12-14T05:55:19.788Z,92.60
2018-12-14T05:57:47.240Z,92.60
2018-12-14T06:00:14.927Z,92.60
2018-12-14T06:02:42.395Z,92.50
2018-12-14T06:05:10.016Z,92.50
2018-12-14T06:07:37.449Z,92.50
2018-12-14T06:10:05.182Z,92.60
2018-12-14T06:12:32.880Z,92.70
2018-12-14T06:15:00.352Z,92.60
2018-12-14T06:17:27.780Z,92.60
2018-12-14T06:19:55.240Z,92.50
2018-12-14T06:22:22.727Z,92.60
2018-12-14T06:24:50.167Z,92.60
2018-12-14T06:27:17.629Z,92.60
2018-12-14T06:29:45.383Z,92.50
2018-12-14T06:32:12.842Z,92.40
2018-12-14T06:34:40.342Z,92.50
2018-12-14T06:37:08.072Z,92.50
2018-12-14T06:39:35.657Z,92.50
2018-12-14T06:42:03.436Z,92.40
2018-12-14T06:44:30.850Z,92.50
2018-12-14T06:46:58.314Z,92.40
2018-12-14T06:49:25.766Z,92.40
2018-12-14T06:51:53.225Z,92.50
2018-12-14T06:54:20.665Z,92.60
2018-12-14T06:56:48.137Z,92.60
2018-12-14T06:59:15.680Z,92.60
2018-12-14T07:01:43.133Z,92.60
2018-12-14T07:04:10.556Z,92.70
2018-12-14T07:06:38.022Z,92.70
2018-12-14T07:09:05.823Z,92.70
2018-12-14T07:11:33.283Z,92.80
2018-12-14T07:14:00.715Z,92.80
2018-12-14T07:16:28.178Z,92.80
2018-12-14T07:18:55.627Z,92.80
2018-12-14T07:21:23.133Z,92.90
2018-12-14T07:23:50.626Z,92.90
2018-12-14T07:26:18.103Z,92.80
2018-12-14T07:28:45.579Z,92.70
2018-12-14T07:31:13.038Z,92.60
2018-12-14T07:33:40.475Z,92.50
2018-12-14T07:36:07.935Z,92.50
2018-12-14T07:38:36.414Z,92.60
2018-12-14T07:41:03.859Z,92.50
2018-12-14T07:43:31.301Z,92.50
2018-12-14T07:45:58.759Z,92.50
2018-12-14T07:48:26.201Z,92.50
2018-12-14T07:50:53.630Z,92.60
2018-12-14T07:53:21.093Z,92.50
2018-12-14T07:55:48.546Z,92.60
2018-12-14T07:58:16.018Z,92.60
2018-12-14T08:00:43.554Z,92.60
2018-12-14T08:03:11.024Z,92.60
2018-12-14T08:05:38.535Z,92.60
2018-12-14T08:08:05.971Z,92.60
2018-12-14T08:10:33.632Z,92.50
2018-12-14T08:13:01.097Z,92.40
2018-12-14T08:15:28.553Z,92.40
2018-12-14T08:17:56.012Z,92.40
2018-12-14T08:20:23.470Z,92.40
2018-12-14T08:22:51.040Z,92.40
2018-12-14T08:25:18.596Z,92.40
2018-12-14T08:27:46.082Z,92.40
2018-12-14T08:30:13.517Z,92.30
2018-12-14T08:32:41.001Z,92.40
2018-12-14T08:35:08.554Z,92.30
2018-12-14T08:37:36.051Z,92.30
2018-12-14T08:40:05.437Z,92.30
2018-12-14T08:42:33.113Z,92.30
2018-12-14T08:45:00.553Z,92.30
2018-12-14T08:47:28.025Z,92.30
2018-12-14T08:49:55.466Z,92.30
2018-12-14T08:52:22.932Z,92.30
2018-12-14T08:54:50.387Z,92.20
2018-12-14T08:57:17.923Z,92.10
2018-12-14T08:59:45.425Z,92.40
2018-12-14T09:02:12.894Z,92.20
2018-12-14T09:04:40.330Z,92.30
2018-12-14T09:07:07.786Z,92.40
2018-12-14T09:09:35.221Z,92.50
2018-12-14T09:12:02.679Z,92.40
2018-12-14T09:14:30.153Z,92.30
2018-12-14T09:16:57.618Z,92.30
2018-12-14T09:19:25.053Z,92.30
2018-12-14T09:21:52.514Z,92.40
2018-12-14T09:24:19.957Z,92.50
2018-12-14T09:26:47.420Z,92.40
2018-12-14T09:29:15.057Z,92.30
2018-12-14T09:31:43.109Z,92.20
2018-12-14T09:34:10.550Z,92.10
2018-12-14T09:36:38.016Z,92.20
2018-12-14T09:39:06.123Z,92.20
2018-12-14T09:41:33.682Z,92.00
2018-12-14T09:44:01.116Z,92.00
2018-12-14T09:46:28.654Z,91.80
2018-12-14T09:48:56.085Z,91.80
2018-12-14T09:51:23.569Z,91.80
2018-12-14T09:53:50.984Z,91.80
2018-12-14T09:56:18.446Z,91.90
2018-12-14T09:58:45.888Z,92.10
2018-12-14T10:01:14.458Z,91.80
2018-12-14T10:03:42.345Z,91.50
2018-12-14T10:06:15.550Z,91.40
2018-12-14T10:08:39.293Z,91.70
2018-12-14T10:11:06.743Z,91.50
2018-12-14T10:13:34.196Z,91.50
2018-12-14T10:16:01.813Z,91.10
2018-12-14T10:18:29.396Z,90.70
2018-12-14T10:20:56.888Z,90.60
2018-12-14T10:23:24.327Z,90.70
2018-12-14T10:25:51.762Z,90.50
2018-12-14T10:28:19.232Z,90.40
2018-12-14T10:30:46.670Z,90.50
2018-12-14T10:33:14.126Z,90.20
2018-12-14T10:35:41.574Z,90.30
2018-12-14T10:38:09.034Z,90.10
2018-12-14T10:40:36.489Z,90.10
2018-12-14T10:43:03.961Z,90.00
2018-12-14T10:45:31.809Z,89.80
2018-12-14T10:47:59.250Z,89.40
2018-12-14T10:50:26.779Z,89.10
2018-12-14T10:52:54.236Z,89.20
2018-12-14T10:55:21.840Z,89.60
2018-12-14T10:57:49.599Z,89.20
2018-12-14T11:00:22.862Z,88.90
2018-12-14T11:02:50.331Z,88.20
2018-12-14T11:05:17.913Z,88.00
2018-12-14T11:07:45.369Z,88.30
2018-12-14T11:10:13.845Z,88.10
2018-12-14T11:12:41.446Z,88.10
2018-12-14T11:15:08.869Z,88.10
2018-12-14T11:17:36.938Z,88.10
2018-12-14T11:20:05.906Z,87.80
2018-12-14T11:22:33.386Z,88.00
2018-12-14T11:25:00.803Z,88.00
2018-12-14T11:27:28.352Z,87.50
2018-12-14T11:29:55.793Z,87.30
2018-12-14T11:32:23.269Z,87.10
2018-12-14T11:34:50.701Z,87.10
2018-12-14T11:37:18.184Z,87.40
2018-12-14T11:39:45.614Z,87.80
2018-12-14T11:42:13.349Z,87.80
2018-12-14T11:44:40.912Z,87.60
2018-12-14T11:47:08.379Z,87.30
2018-12-14T11:49:35.818Z,86.90
2018-12-14T11:52:03.676Z,87.10
2018-12-14T11:54:31.107Z,87.10
2018-12-14T11:56:58.627Z,87.00
2018-12-14T11:59:26.065Z,86.60
2018-12-14T12:01:53.526Z,86.90
2018-12-14T12:04:20.952Z,86.70
2018-12-14T12:06:48.482Z,87.00
2018-12-14T12:09:15.912Z,87.00
2018-12-14T12:11:43.374Z,87.60
2018-12-14T12:14:10.893Z,86.90
2018-12-14T12:16:38.339Z,86.60
2018-12-14T12:19:05.773Z,86.60
2018-12-14T12:21:33.632Z,86.60
2018-12-14T12:24:01.073Z,86.80
2018-12-14T12:26:28.532Z,86.70
2018-12-14T12:28:55.965Z,86.60
2018-12-14T12:31:23.501Z,86.30
2018-12-14T12:33:50.955Z,86.00
2018-12-14T12:36:18.551Z,86.20
2018-12-14T12:38:46.002Z,86.00
2018-12-14T12:41:13.497Z,85.90
2018-12-14T12:43:40.955Z,85.80
2018-12-14T12:46:08.389Z,85.50
2018-12-14T12:48:36.152Z,85.70
2018-12-14T12:51:03.594Z,85.80
2018-12-14T12:53:31.053Z,85.70
2018-12-14T12:55:58.501Z,85.50
2018-12-14T12:58:25.957Z,85.30
2018-12-14T13:00:53.412Z,85.10
2018-12-14T13:03:21.080Z,85.00
2018-12-14T13:05:48.524Z,84.70
2018-12-14T13:08:16.202Z,84.70
2018-12-14T13:10:43.641Z,84.60
2018-12-14T13:13:11.103Z,84.70
2018-12-14T13:15:38.553Z,85.00
2018-12-14T13:18:06.025Z,84.90
2018-12-14T13:20:33.461Z,85.00
2018-12-14T13:23:00.947Z,85.00
2018-12-14T13:25:28.877Z,85.10
2018-12-14T13:27:56.329Z,85.20
2018-12-14T13:30:23.825Z,85.20
2018-12-14T13:32:51.272Z,85.00
2018-12-14T13:35:18.732Z,85.20
2018-12-14T13:37:46.202Z,85.30
2018-12-14T13:40:13.626Z,85.00
2018-12-14T13:42:41.246Z,84.50
2018-12-14T13:45:08.780Z,84.20
2018-12-14T13:47:36.249Z,83.80
2018-12-14T13:50:04.841Z,83.70
2018-12-14T13:52:32.367Z,84.90
2018-12-14T13:54:59.796Z,84.80
2018-12-14T13:57:27.403Z,84.30
2018-12-14T13:59:54.841Z,84.20
2018-12-14T14:02:22.309Z,84.30
2018-12-14T14:04:49.775Z,83.70
2018-12-14T14:07:17.242Z,83.60
2018-12-14T14:09:44.671Z,83.10
2018-12-14T14:12:12.151Z,83.70
2018-12-14T14:14:39.666Z,83.40
2018-12-14T14:17:07.120Z,83.20
2018-12-14T14:19:35.057Z,83.20
2018-12-14T14:22:02.508Z,82.80
2018-12-14T14:24:29.998Z,83.00
2018-12-14T14:26:57.464Z,83.00
2018-12-14T14:29:24.906Z,83.00
2018-12-14T14:31:52.448Z,83.20
2018-12-14T14:34:19.932Z,83.10
2018-12-14T14:36:47.425Z,83.00
2018-12-14T14:39:14.938Z,82.50
2018-12-14T14:41:42.556Z,82.10
2018-12-14T14:44:09.998Z,81.70
2018-12-14T14:46:37.486Z,81.90
2018-12-14T14:49:04.926Z,81.40
2018-12-14T14:51:32.578Z,81.00
2018-12-14T14:54:00.011Z,80.80
2018-12-14T14:56:28.346Z,81.00
2018-12-14T14:58:55.851Z,81.00
2018-12-14T15:01:23.324Z,81.00
2018-12-14T15:03:50.932Z,81.30
2018-12-14T15:06:18.393Z,81.60
2018-12-14T15:08:45.831Z,81.60
2018-12-14T15:11:13.306Z,81.70
2018-12-14T15:13:40.777Z,81.90
2018-12-14T15:16:08.313Z,82.10
2018-12-14T15:18:35.781Z,82.20
2018-12-14T15:21:03.316Z,82.20
2018-12-14T15:23:30.783Z,82.20
2018-12-14T15:25:58.219Z,82.10
2018-12-14T15:28:25.700Z,81.80
2018-12-14T15:30:53.138Z,81.70
2018-12-14T15:33:20.597Z,81.70
2018-12-14T15:35:48.112Z,81.70
2018-12-14T15:38:15.566Z,81.60
2018-12-14T15:40:43.136Z,81.70
2018-12-14T15:43:10.677Z,82.40
2018-12-14T15:45:38.234Z,81.70
2018-12-14T15:48:05.918Z,81.80
2018-12-14T15:50:33.390Z,81.40
2018-12-14T15:53:00.876Z,81.40
2018-12-14T15:55:28.453Z,81.10
2018-12-14T15:57:55.917Z,81.00
2018-12-14T16:00:23.362Z,81.00
2018-12-14T16:02:50.851Z,81.30
2018-12-14T16:05:18.359Z,81.10
2018-12-14T16:07:45.813Z,81.00
2018-12-14T16:10:13.535Z,80.40
2018-12-14T16:12:41.004Z,80.20
2018-12-14T16:15:08.695Z,80.30
2018-12-14T16:17:36.255Z,80.50
2018-12-14T16:20:05.598Z,80.40
2018-12-14T16:22:33.223Z,80.30
2018-12-14T16:25:00.740Z,80.00
2018-12-14T16:27:28.268Z,80.10
2018-12-14T16:29:55.768Z,80.30
2018-12-14T16:32:23.398Z,80.30
2018-12-14T16:34:50.838Z,80.40
2018-12-14T16:37:18.301Z,80.00
2018-12-14T16:39:45.747Z,79.80
2018-12-14T16:42:13.230Z,79.60
2018-12-14T16:44:40.703Z,79.30
2018-12-14T16:47:08.167Z,79.40
2018-12-14T16:49:35.616Z,79.50
2018-12-14T16:52:03.069Z,79.20
2018-12-14T16:54:30.540Z,79.40
2018-12-14T16:56:58.065Z,79.80
2018-12-14T16:59:25.523Z,79.50
2018-12-14T17:01:53.011Z,79.40
2018-12-14T17:04:20.531Z,79.30
2018-12-14T17:06:47.973Z,79.10
2018-12-14T17:09:15.444Z,78.80
2018-12-14T17:11:42.901Z,79.00
2018-12-14T17:14:10.367Z,79.10
2018-12-14T17:16:37.825Z,79.10
2018-12-14T17:21:43.786Z,78.70
2018-12-14T17:24:11.341Z,78.20
2018-12-14T17:26:38.773Z,78.20
2018-12-14T17:29:06.451Z,78.00
2018-12-14T17:31:33.940Z,78.00
2018-12-14T17:34:01.395Z,77.90
2018-12-14T17:36:28.886Z,78.50
2018-12-14T17:38:56.369Z,77.70
2018-12-14T17:41:23.818Z,77.40
2018-12-14T17:43:51.282Z,77.20
2018-12-14T17:46:18.715Z,77.30
2018-12-14T17:48:46.224Z,77.10
2018-12-14T17:51:13.731Z,77.00
2018-12-14T17:53:41.181Z,76.80
2018-12-14T17:56:08.622Z,77.00
2018-12-14T17:58:36.084Z,77.00
2018-12-14T18:01:03.586Z,76.60
2018-12-14T18:03:31.055Z,76.30
2018-12-14T18:05:58.489Z,76.00
2018-12-14T18:08:25.965Z,75.90
2018-12-14T18:10:53.440Z,76.00
2018-12-14T18:13:20.906Z,76.20
2018-12-14T18:15:48.347Z,76.30
2018-12-14T18:18:15.812Z,76.40
2018-12-14T18:20:43.260Z,76.30
2018-12-14T18:23:10.725Z,76.80
2018-12-14T18:25:38.313Z,76.60
2018-12-14T18:28:05.788Z,76.70
2018-12-14T18:30:33.536Z,76.40
2018-12-14T18:33:01.163Z,76.50
2018-12-14T18:35:28.606Z,76.70
2018-12-14T18:37:56.073Z,77.20
2018-12-14T18:40:23.512Z,77.10
2018-12-14T18:42:50.987Z,77.10
2018-12-14T18:45:18.432Z,77.10
2018-12-14T18:47:45.897Z,77.70
2018-12-14T18:50:13.333Z,77.90
2018-12-14T18:52:41.107Z,77.90
2018-12-14T18:55:08.600Z,78.00
2018-12-14T18:57:36.050Z,78.20
2018-12-14T19:00:04.778Z,78.30
2018-12-14T19:02:32.302Z,78.50
2018-12-14T19:04:59.761Z,78.60
2018-12-14T19:07:27.301Z,79.00
2018-12-14T19:09:54.757Z,79.10
2018-12-14T19:12:22.463Z,79.20
2018-12-14T19:14:49.987Z,79.10
2018-12-14T19:17:17.568Z,78.90
2018-12-14T19:19:45.027Z,79.20
2018-12-14T19:22:12.482Z,79.30
2018-12-14T19:24:39.934Z,79.40
2018-12-14T19:27:07.490Z,79.60
2018-12-14T19:29:34.979Z,79.60
2018-12-14T19:32:02.430Z,79.60
2018-12-14T19:34:31.603Z,79.50
2018-12-14T19:36:59.157Z,79.50
2018-12-14T19:39:26.856Z,79.90
2018-12-14T19:41:54.368Z,80.00
2018-12-14T19:44:21.830Z,79.90
2018-12-14T19:46:49.273Z,79.90
2018-12-14T19:49:16.805Z,80.10
2018-12-14T19:51:44.304Z,80.20
2018-12-14T19:54:11.787Z,80.00
2018-12-14T19:56:39.282Z,80.00
2018-12-14T19:59:06.805Z,80.30
2018-12-14T20:01:34.255Z,80.10
2018-12-14T20:04:01.727Z,80.20
2018-12-14T20:06:29.489Z,80.20
2018-12-14T20:08:57.184Z,80.00
2018-12-14T20:11:24.798Z,79.60
2018-12-14T20:13:52.258Z,79.60
2018-12-14T20:16:19.718Z,79.80
2018-12-14T20:18:47.174Z,79.60
2018-12-14T20:21:14.712Z,79.50
2018-12-14T20:23:42.162Z,79.30
2018-12-14T20:26:09.645Z,79.40
2018-12-14T20:28:37.202Z,79.50
2018-12-14T20:31:04.674Z,79.20
2018-12-14T20:33:32.109Z,79.10
2018-12-14T20:35:59.624Z,79.00
2018-12-14T20:38:27.142Z,78.70
2018-12-14T20:40:54.624Z,78.90
2018-12-14T20:43:22.071Z,78.80
2018-12-14T20:45:49.586Z,79.00
2018-12-14T20:48:17.012Z,79.00
2018-12-14T20:50:44.488Z,78.90
2018-12-14T20:53:11.926Z,78.90
2018-12-14T20:55:39.421Z,79.60
2018-12-14T20:58:06.902Z,78.70
2018-12-14T21:00:34.435Z,78.90
2018-12-14T21:03:01.914Z,78.90
2018-12-14T21:05:29.581Z,79.00
2018-12-14T21:07:57.047Z,79.10
2018-12-14T21:10:24.488Z,79.30
2018-12-14T21:12:52.077Z,79.20
2018-12-14T21:15:19.528Z,79.20
2018-12-14T21:17:46.995Z,79.00
2018-12-14T21:20:14.499Z,79.60
2018-12-14T21:22:41.987Z,79.40
2018-12-14T21:25:09.488Z,80.00
2018-12-14T21:27:36.964Z,80.00
2018-12-14T21:30:06.670Z,80.10
2018-12-14T21:32:34.140Z,80.00
2018-12-14T21:35:01.587Z,80.10
2018-12-14T21:37:29.054Z,80.30
2018-12-14T21:39:56.627Z,80.50
2018-12-14T21:42:24.104Z,80.70
2018-12-14T21:44:51.575Z,80.70
2018-12-14T21:47:19.054Z,80.90
2018-12-14T21:49:46.502Z,80.60
2018-12-14T21:52:14.003Z,80.60
2018-12-14T21:54:41.445Z,80.70
2018-12-14T21:57:08.910Z,80.60
2018-12-14T21:59:36.362Z,80.70
2018-12-14T22:02:03.822Z,80.80
2018-12-14T22:04:31.266Z,80.80
2018-12-14T22:06:58.737Z,81.00
2018-12-14T22:09:26.187Z,80.90
2018-12-14T22:11:53.638Z,80.40
2018-12-14T22:14:21.082Z,80.60
2018-12-14T22:16:48.557Z,80.90
2018-12-14T22:19:16.002Z,80.80
2018-12-14T22:21:43.457Z,80.70
2018-12-14T22:24:10.917Z,80.70
2018-12-14T22:26:38.519Z,80.60
2018-12-14T22:29:05.956Z,80.50
2018-12-14T22:31:33.445Z,80.50
2018-12-14T22:34:00.897Z,80.30
2018-12-14T22:36:28.442Z,80.80
2018-12-14T22:38:55.877Z,80.20
2018-12-14T22:41:23.341Z,80.30
2018-12-14T22:43:50.781Z,80.00
2018-12-14T22:46:18.274Z,80.00
2018-12-14T22:48:45.705Z,80.10
2018-12-14T22:51:13.169Z,80.00
2018-12-14T22:53:40.621Z,80.10
2018-12-14T22:56:08.093Z,79.90
2018-12-14T22:58:35.529Z,79.90
2018-12-14T23:01:03.131Z,80.10
2018-12-14T23:03:30.585Z,80.20
2018-12-14T23:05:58.229Z,79.90
2018-12-14T23:08:25.669Z,80.00
2018-12-14T23:10:53.143Z,80.10
2018-12-14T23:13:20.598Z,80.20
2018-12-14T23:15:48.236Z,80.30
2018-12-14T23:18:15.801Z,80.40
2018-12-14T23:20:43.720Z,80.40
2018-12-14T23:23:11.158Z,80.20
2018-12-14T23:25:39.765Z,80.30
2018-12-14T23:28:07.266Z,80.20
2018-12-14T23:30:34.889Z,80.10
2018-12-14T23:33:02.511Z,80.20
2018-12-14T23:35:29.942Z,80.40
2018-12-14T23:37:57.696Z,80.40
2018-12-14T23:40:25.120Z,80.40
2018-12-14T23:42:52.594Z,80.30
2018-12-14T23:45:20.029Z,80.50
2018-12-14T23:47:47.520Z,80.30
2018-12-14T23:50:14.965Z,80.20
2018-12-14T23:52:42.435Z,80.40
2018-12-14T23:55:09.857Z,80.50
2018-12-14T23:57:37.315Z,81.30
